Capitol Logistics 328




KCVG
Cincinnati/Northern Kentucky International Airport
Covington, Kentucky
KBWI
Baltimore/Washington International Airport
Baltimore, Maryland

Activity Log

Date Flight Route Aircraft Duration
10/23/2021 CPX2157 GIPLE6 HVQ RAVNN6 B763 1h 16m
10/13/2021 CPX2157 GIPLE6 HVQ RAVNN6 B752 1h 20m
08/10/2021 CPX2157 GIPLE6 HVQ RAVNN6 A30F 1h 12m
08/06/2021 CPX2157 GIPLE6 HVQ RAVNN6 A30F 1h 27m

Route Details

Aircraft Information
Group: Equipment Varies
Types: A30F,A31F,B738,B744,B752,B762,B763,MD11
Route Data
Demand: H
Distance: 373nm
Duration: 1h 04m
Recm'd Route: GIPLE6 HVQ RAVNN6
Origin Wx: KCVG 270552Z 23005KT 10SM FEW060 16/16 A2982 RMK AO2 RAB0453E05 SLP089 P0000 60005 T01610156 10200 20161 58001 $
Dest. Wx: KBWI 270554Z 16004KT 5SM BR OVC004 20/19 A3001 RMK AO2 SLP161 T02000189 10211 20200 58023
Notes:

Financial History
Total Freight: 272,788lbs
Average Load: 68,197lbs/flt
Fuel Used: 55,425lbs
Avg. Fuel Used: 13,856lbs/flt
Fuel Expense: $15,440
Avg. Fuel Expense: $3,860
Avg. Fuel Cost: $0.29/lbs
Total Gross Income: $593,253
Pilot Pay: $976
Total Expenses: $78,284
Total Revenue: $498,300
Average Revenue: $148,313.33